Time;durP1;ratioP1;P1;durP2;ratioP2;P2;SDS_P1;SDS_P2;PMS_P1;PMS_P2;Temp;Humidity;BMP_temperature;BMP_pressure;BME280_temperature;BME280_humidity;BME280_pressure;Samples;Min_cycle;Max_cycle;Signal;HPM_P1;HPM_P2
2021/07/15 00:00:25;;;;;;;0.73;0.73;;;28.90;75.50;;;;;;5038497;28;20775;-78
2021/07/15 00:02:51;;;;;;;0.82;0.82;;;28.90;75.80;;;;;;5039828;28;20032;-77
2021/07/15 00:05:17;;;;;;;0.63;0.60;;;28.80;76.00;;;;;;5040277;28;20509;-77
2021/07/15 00:07:43;;;;;;;1.00;0.90;;;28.70;76.30;;;;;;5039175;28;20465;-78
2021/07/15 00:10:23;;;;;;;0.63;0.63;;;28.70;76.20;;;;;;5040804;28;20129;-78
2021/07/15 00:12:51;;;;;;;0.70;0.70;;;28.70;76.50;;;;;;5039849;28;20108;-81
2021/07/15 00:15:21;;;;;;;0.75;0.75;;;28.60;76.80;;;;;;5043355;28;20064;-78
2021/07/15 00:17:47;;;;;;;0.85;0.65;;;28.60;76.90;;;;;;5038870;28;20033;-78
2021/07/15 00:20:17;;;;;;;2.35;0.85;;;28.50;77.30;;;;;;5038262;28;20040;-78
2021/07/15 00:22:43;;;;;;;0.45;0.45;;;28.50;77.40;;;;;;5040134;28;20370;-83
2021/07/15 00:25:16;;;;;;;2.35;2.03;;;28.40;77.70;;;;;;5037759;28;20485;-79
2021/07/15 00:27:42;;;;;;;1.27;0.82;;;28.30;78.10;;;;;;5040852;28;20082;-77
2021/07/15 00:30:08;;;;;;;0.60;0.60;;;28.30;78.30;;;;;;5030383;28;20397;-78
2021/07/15 00:32:34;;;;;;;0.95;0.88;;;28.40;78.40;;;;;;5041296;28;20035;-77
2021/07/15 00:35:00;;;;;;;0.82;0.82;;;28.40;78.30;;;;;;5031659;28;20038;-78
2021/07/15 00:37:26;;;;;;;0.60;0.60;;;28.40;78.60;;;;;;5030642;28;20132;-77
2021/07/15 00:39:52;;;;;;;1.02;0.90;;;28.30;78.80;;;;;;5030876;28;20057;-77
2021/07/15 00:42:18;;;;;;;0.80;0.80;;;28.30;79.10;;;;;;5030627;28;20065;-78
2021/07/15 00:44:44;;;;;;;0.70;0.70;;;28.20;79.30;;;;;;5047635;28;20099;-79
2021/07/15 00:47:09;;;;;;;0.45;0.45;;;28.20;79.60;;;;;;5050107;28;20457;-78
2021/07/15 00:49:35;;;;;;;0.85;0.85;;;28.10;79.60;;;;;;5050119;28;20047;-78
2021/07/15 00:52:01;;;;;;;1.25;0.82;;;28.10;80.00;;;;;;5050577;28;20098;-78
2021/07/15 00:54:27;;;;;;;2.08;1.92;;;28.10;79.90;;;;;;5050223;28;20029;-78
2021/07/15 00:56:53;;;;;;;0.50;0.50;;;28.20;80.10;;;;;;5002935;28;1291089;-78
2021/07/15 00:59:21;;;;;;;1.08;0.88;;;28.10;80.20;;;;;;5041377;28;20398;-77
2021/07/15 01:01:47;;;;;;;0.55;0.55;;;28.20;80.60;;;;;;5039644;28;20389;-79
2021/07/15 01:04:13;;;;;;;0.65;0.55;;;28.30;80.80;;;;;;5040455;28;20033;-79
2021/07/15 01:06:39;;;;;;;7.10;1.20;;;28.20;80.00;;;;;;5041268;28;20048;-77
2021/07/15 01:09:05;;;;;;;0.40;0.40;;;28.20;80.10;;;;;;5039166;28;20034;-77
2021/07/15 01:11:46;;;;;;;1.60;1.38;;;28.20;80.30;;;;;;5040211;28;20480;-80
2021/07/15 01:14:18;;;;;;;0.40;0.40;;;28.20;80.70;;;;;;5039223;28;20053;-80
2021/07/15 01:16:58;;;;;;;1.02;0.85;;;28.20;80.60;;;;;;5043703;28;20042;-78
2021/07/15 01:19:55;;;;;;;0.88;0.88;;;28.10;81.30;;;;;;5039695;28;20100;-83
2021/07/15 01:22:27;;;;;;;2.10;1.60;;;27.90;81.90;;;;;;5044455;28;20041;-81
2021/07/15 01:25:18;;;;;;;1.30;0.98;;;28.00;82.70;;;;;;5043112;28;20502;-80
2021/07/15 01:27:54;;;;;;;;;;;28.00;82.70;;;;;;5045788;28;20711;-79
2021/07/15 01:30:32;;;;;;;1.00;0.70;;;28.00;82.00;;;;;;5045107;28;19905;-81
2021/07/15 01:33:15;;;;;;;0.52;0.52;;;27.90;82.90;;;;;;5042054;28;20040;-78
2021/07/15 01:35:59;;;;;;;0.95;0.95;;;28.00;82.60;;;;;;5043381;28;20560;-79
2021/07/15 01:38:38;;;;;;;1.05;0.95;;;28.10;82.70;;;;;;5043721;28;20041;-80
2021/07/15 01:41:15;;;;;;;0.82;0.82;;;28.00;82.70;;;;;;5042437;28;20033;-78
2021/07/15 01:43:44;;;;;;;1.17;1.08;;;27.80;83.80;;;;;;5041992;28;20026;-77
2021/07/15 01:46:12;;;;;;;0.60;0.60;;;27.90;83.30;;;;;;5045673;28;20083;-77
2021/07/15 01:48:41;;;;;;;0.85;0.85;;;27.90;83.30;;;;;;5042272;28;20037;-77
2021/07/15 01:51:08;;;;;;;0.50;0.50;;;27.90;82.90;;;;;;5044657;28;20033;-78
2021/07/15 01:53:35;;;;;;;0.50;0.50;;;27.80;83.30;;;;;;5034047;28;20042;-80
2021/07/15 01:56:02;;;;;;;0.50;0.50;;;27.80;83.60;;;;;;5034052;28;20026;-79
2021/07/15 01:58:31;;;;;;;4.68;1.88;;;27.80;83.50;;;;;;5033443;28;20052;-81
2021/07/15 02:00:59;;;;;;;2.25;1.77;;;27.80;83.20;;;;;;5034713;28;20052;-82
2021/07/15 02:03:28;;;;;;;0.70;0.70;;;27.70;83.30;;;;;;5033913;28;20121;-83
2021/07/15 02:05:55;;;;;;;1.02;0.70;;;27.70;83.70;;;;;;5034591;28;20108;-81
2021/07/15 02:08:22;;;;;;;1.60;1.50;;;27.40;83.90;;;;;;5033947;28;20083;-77
2021/07/15 02:10:50;;;;;;;1.27;1.17;;;27.50;85.40;;;;;;5034304;28;20113;-79
2021/07/15 02:13:17;;;;;;;1.70;1.60;;;27.60;85.00;;;;;;5033658;28;20025;-81
2021/07/15 02:15:44;;;;;;;0.50;0.50;;;27.70;85.00;;;;;;5042039;28;20031;-81
2021/07/15 02:18:13;;;;;;;1.27;0.88;;;27.70;84.10;;;;;;5073438;28;20396;-82
2021/07/15 02:20:39;;;;;;;2.63;0.98;;;27.70;84.40;;;;;;5074526;28;20030;-80
2021/07/15 02:23:07;;;;;;;0.70;0.70;;;27.70;84.90;;;;;;5073369;28;20037;-80
2021/07/15 02:25:36;;;;;;;1.15;1.05;;;27.70;84.40;;;;;;5073745;28;20036;-80
2021/07/15 02:28:04;;;;;;;0.65;0.65;;;27.70;85.30;;;;;;5073557;28;20028;-80
2021/07/15 02:30:30;;;;;;;0.60;0.60;;;27.80;85.80;;;;;;5073653;28;20099;-80
2021/07/15 02:33:00;;;;;;;1.25;1.15;;;27.80;85.90;;;;;;5072879;28;20108;-81
2021/07/15 02:35:31;;;;;;;1.02;1.00;;;27.80;86.10;;;;;;5073610;28;20040;-82
2021/07/15 02:37:57;;;;;;;;;;;27.60;85.70;;;;;;5073339;28;20158;-82
2021/07/15 02:40:23;;;;;;;1.33;1.23;;;27.70;86.30;;;;;;5073543;28;20438;-76
2021/07/15 02:42:49;;;;;;;0.70;0.70;;;27.60;86.60;;;;;;5073033;28;20048;-79
2021/07/15 02:45:17;;;;;;;0.73;0.73;;;27.70;87.80;;;;;;5073246;28;20103;-80
2021/07/15 02:47:44;;;;;;;1.85;0.98;;;27.70;86.60;;;;;;5073012;28;20113;-81
2021/07/15 02:50:13;;;;;;;2.60;1.95;;;27.70;86.50;;;;;;5073363;28;20087;-80
2021/07/15 02:52:39;;;;;;;1.25;1.15;;;27.60;87.70;;;;;;5072990;28;20543;-80
2021/07/15 02:55:06;;;;;;;1.80;1.35;;;27.50;87.50;;;;;;5072822;28;20130;-81
2021/07/15 02:57:50;;;;;;;0.80;0.80;;;27.60;87.80;;;;;;5072537;28;20420;-80
2021/07/15 03:00:18;;;;;;;0.60;0.60;;;27.50;88.60;;;;;;5072897;28;20024;-80
2021/07/15 03:02:57;;;;;;;1.27;1.17;;;27.50;88.80;;;;;;5072607;28;20025;-78
2021/07/15 03:05:54;;;;;;;1.73;1.37;;;27.50;88.50;;;;;;5072883;28;20450;-78
2021/07/15 03:08:25;;;;;;;0.73;0.70;;;27.50;89.10;;;;;;5050673;28;20063;-79
2021/07/15 03:10:52;;;;;;;;;;;27.40;89.50;;;;;;5073138;28;20091;-79
2021/07/15 03:13:18;;;;;;;0.93;0.88;;;27.30;90.10;;;;;;5072628;28;20250;-79
2021/07/15 03:15:44;;;;;;;1.13;1.02;;;27.30;89.40;;;;;;5069722;28;20496;-79
2021/07/15 03:18:15;;;;;;;0.50;0.50;;;27.30;89.00;;;;;;5051763;28;20041;-80
2021/07/15 03:20:42;;;;;;;1.02;0.95;;;27.30;89.20;;;;;;5052788;28;20443;-80
2021/07/15 03:23:16;;;;;;;1.30;1.20;;;27.30;89.60;;;;;;5052523;28;20035;-79
2021/07/15 03:25:48;;;;;;;0.93;0.85;;;27.40;90.10;;;;;;5052335;28;20413;-78
2021/07/15 03:28:15;;;;;;;0.60;0.60;;;27.50;90.20;;;;;;5052430;28;20025;-78
2021/07/15 03:30:42;;;;;;;0.88;0.88;;;27.50;89.80;;;;;;5052260;28;20142;-79
2021/07/15 03:33:10;;;;;;;1.00;0.95;;;27.60;90.00;;;;;;5051976;28;20187;-78
2021/07/15 03:35:36;;;;;;;1.50;1.05;;;27.20;89.60;;;;;;5052459;28;20481;-79
2021/07/15 03:38:03;;;;;;;0.68;0.68;;;26.80;90.50;;;;;;5051367;28;20057;-77
2021/07/15 03:40:30;;;;;;;2.13;1.83;;;26.70;90.50;;;;;;5034023;28;20492;-81
2021/07/15 03:42:58;;;;;;;3.28;1.40;;;26.40;91.00;;;;;;5051584;28;20037;-76
2021/07/15 03:45:25;;;;;;;1.58;1.20;;;26.60;91.20;;;;;;5052197;28;20051;-78
2021/07/15 03:47:53;;;;;;;0.90;0.90;;;26.90;91.20;;;;;;5051866;28;20040;-77
2021/07/15 03:50:24;;;;;;;1.83;1.40;;;27.10;91.10;;;;;;5052409;28;20373;-78
2021/07/15 03:52:53;;;;;;;1.05;1.02;;;27.10;90.70;;;;;;5051576;28;20041;-78
2021/07/15 03:55:23;;;;;;;3.42;1.70;;;26.90;90.60;;;;;;5052149;28;20036;-78
2021/07/15 03:57:50;;;;;;;;;;;26.60;91.30;;;;;;5052090;28;20040;-79
2021/07/15 04:00:19;;;;;;;1.30;0.82;;;26.30;91.80;;;;;;5051678;28;19905;-79
2021/07/15 04:02:46;;;;;;;3.05;2.55;;;26.30;92.40;;;;;;5051800;28;20032;-81
2021/07/15 04:05:13;;;;;;;1.80;1.60;;;26.50;91.50;;;;;;5052412;28;20162;-80
2021/07/15 04:07:40;;;;;;;1.48;1.30;;;26.40;92.10;;;;;;5051860;28;20044;-78
2021/07/15 04:10:07;;;;;;;1.27;1.17;;;26.70;91.90;;;;;;5051482;28;20031;-81
2021/07/15 04:12:36;;;;;;;2.45;2.03;;;26.90;91.10;;;;;;5051626;28;20032;-81
2021/07/15 04:15:13;;;;;;;0.85;0.85;;;27.10;91.00;;;;;;5051795;28;20025;-78
2021/07/15 04:17:50;;;;;;;0.80;0.68;;;27.30;90.70;;;;;;5050815;28;20051;-79
2021/07/15 04:20:18;;;;;;;1.25;1.15;;;27.30;90.60;;;;;;5071018;28;20032;-80
2021/07/15 04:22:46;;;;;;;0.60;0.60;;;27.40;90.70;;;;;;5071685;28;20045;-79
2021/07/15 04:25:15;;;;;;;0.82;0.82;;;27.40;91.30;;;;;;5071268;28;20036;-80
2021/07/15 04:27:44;;;;;;;5.07;1.67;;;27.40;91.70;;;;;;5071786;28;20063;-78
2021/07/15 04:30:11;;;;;;;0.90;0.90;;;27.40;91.70;;;;;;5071633;28;20020;-77
2021/07/15 04:32:56;;;;;;;0.80;0.80;;;27.30;91.10;;;;;;5071140;28;20041;-77
2021/07/15 04:35:23;;;;;;;1.65;1.42;;;27.50;90.70;;;;;;5071631;28;20033;-79
2021/07/15 04:37:51;;;;;;;0.93;0.88;;;27.30;90.80;;;;;;5071102;28;20055;-80
2021/07/15 04:40:19;;;;;;;3.13;2.28;;;27.30;90.40;;;;;;5071251;28;20102;-81
2021/07/15 04:42:48;;;;;;;0.80;0.80;;;26.20;92.00;;;;;;5070913;28;20083;-83
2021/07/15 04:45:16;;;;;;;1.63;1.33;;;25.80;92.70;;;;;;5071188;28;20036;-86
2021/07/15 04:47:45;;;;;;;1.63;1.30;;;26.00;92.60;;;;;;5071078;28;20044;-85
2021/07/15 04:50:14;;;;;;;0.73;0.73;;;25.90;92.90;;;;;;5071285;28;20033;-81
2021/07/15 04:52:42;;;;;;;3.22;1.50;;;26.20;93.00;;;;;;5070969;28;20044;-79
2021/07/15 04:55:09;;;;;;;0.60;0.60;;;26.40;92.90;;;;;;5073736;28;20032;-81
2021/07/15 04:57:36;;;;;;;0.60;0.60;;;26.90;92.20;;;;;;5074746;28;20124;-80
2021/07/15 05:00:06;;;;;;;1.23;1.10;;;26.30;92.10;;;;;;5074495;28;20056;-86
2021/07/15 05:02:32;;;;;;;1.73;1.63;;;26.00;93.20;;;;;;5075027;28;20104;-81
2021/07/15 05:04:58;;;;;;;1.33;1.17;;;26.20;93.00;;;;;;5075315;28;20128;-85
2021/07/15 05:07:24;;;;;;;0.98;0.90;;;26.00;93.20;;;;;;5074770;28;20040;-81
2021/07/15 05:09:49;;;;;;;1.35;1.25;;;26.30;93.30;;;;;;5074823;28;20036;-79
2021/07/15 05:12:15;;;;;;;0.88;0.88;;;26.10;93.50;;;;;;5075267;28;20032;-84
2021/07/15 05:14:41;;;;;;;4.38;1.80;;;26.40;93.80;;;;;;5074796;28;20029;-80
2021/07/15 05:17:09;;;;;;;0.60;0.60;;;26.20;93.50;;;;;;5062892;28;20321;-78
2021/07/15 05:19:35;;;;;;;1.30;1.13;;;26.10;93.70;;;;;;5054912;28;20469;-83
2021/07/15 05:22:01;;;;;;;1.30;1.20;;;26.10;93.80;;;;;;5054538;28;20393;-80
2021/07/15 05:24:26;;;;;;;0.95;0.85;;;26.40;93.60;;;;;;5054586;28;20481;-84
2021/07/15 05:26:52;;;;;;;1.10;1.10;;;26.50;93.30;;;;;;5054345;28;20472;-82
2021/07/15 05:29:18;;;;;;;2.60;1.08;;;26.30;93.50;;;;;;5054589;28;20040;-80
2021/07/15 05:31:44;;;;;;;0.93;0.93;;;26.40;93.40;;;;;;5054138;28;20064;-81
2021/07/15 05:34:10;;;;;;;1.55;1.33;;;26.60;93.30;;;;;;5054485;28;20435;-78
2021/07/15 05:36:35;;;;;;;2.17;1.55;;;27.00;93.10;;;;;;5053826;28;20051;-79
2021/07/15 05:39:02;;;;;;;1.67;1.50;;;27.00;92.60;;;;;;5054395;28;20037;-81
2021/07/15 05:41:28;;;;;;;2.95;2.65;;;27.30;93.00;;;;;;5054651;28;20029;-78
2021/07/15 05:43:54;;;;;;;6.65;5.18;;;27.40;92.40;;;;;;5054397;28;20063;-79
2021/07/15 05:46:20;;;;;;;6.75;3.83;;;27.50;92.20;;;;;;5053988;28;20065;-79
2021/07/15 05:48:45;;;;;;;2.25;2.05;;;27.50;92.10;;;;;;5054410;28;20095;-78
2021/07/15 05:51:11;;;;;;;1.48;1.38;;;27.60;91.60;;;;;;5053921;28;20049;-80
2021/07/15 05:53:38;;;;;;;6.10;2.58;;;27.80;92.00;;;;;;5042670;28;20456;-78
2021/07/15 05:56:04;;;;;;;1.30;1.17;;;28.00;91.50;;;;;;5026236;28;20057;-81
2021/07/15 05:58:29;;;;;;;1.88;1.52;;;28.10;91.40;;;;;;5036263;28;20069;-80
2021/07/15 06:00:55;;;;;;;1.00;0.82;;;28.20;91.50;;;;;;5034034;28;20072;-80
2021/07/15 06:03:21;;;;;;;2.13;1.73;;;28.30;91.20;;;;;;5033844;28;20029;-78
2021/07/15 06:05:47;;;;;;;3.70;2.65;;;28.10;90.80;;;;;;5033825;28;20041;-79
2021/07/15 06:08:12;;;;;;;1.10;1.00;;;28.20;91.50;;;;;;5033702;28;20049;-81
2021/07/15 06:10:38;;;;;;;1.17;1.10;;;28.30;90.80;;;;;;5033492;28;20028;-79
2021/07/15 06:13:04;;;;;;;1.25;1.05;;;28.30;91.50;;;;;;5033738;28;20029;-79
2021/07/15 06:15:31;;;;;;;0.90;0.90;;;28.30;90.90;;;;;;5033262;28;20088;-78
2021/07/15 06:17:57;;;;;;;1.63;1.38;;;28.40;90.90;;;;;;5065976;28;20041;-82
2021/07/15 06:20:23;;;;;;;0.75;0.75;;;28.50;90.80;;;;;;5073594;28;20072;-81
2021/07/15 06:22:49;;;;;;;1.13;0.95;;;28.50;90.90;;;;;;5055174;28;20064;-82
2021/07/15 06:25:14;;;;;;;1.60;1.20;;;28.70;90.50;;;;;;5073289;28;20039;-79
2021/07/15 06:27:41;;;;;;;2.35;1.95;;;28.80;90.60;;;;;;5073141;28;20029;-79
2021/07/15 06:30:09;;;;;;;1.15;1.13;;;28.70;90.70;;;;;;5073597;28;20032;-79
2021/07/15 06:32:35;;;;;;;0.88;0.77;;;28.80;90.70;;;;;;5073324;28;20357;-77
2021/07/15 06:35:02;;;;;;;2.88;2.13;;;28.90;90.90;;;;;;5073412;28;20047;-77
2021/07/15 06:37:33;;;;;;;1.50;1.40;;;28.90;90.60;;;;;;5073168;28;20575;-78
2021/07/15 06:40:00;;;;;;;1.15;1.00;;;28.90;90.60;;;;;;5073452;28;20079;-82
2021/07/15 06:42:26;;;;;;;1.60;1.50;;;29.00;90.70;;;;;;5073291;28;20037;-79
2021/07/15 06:44:52;;;;;;;1.58;1.40;;;29.10;90.30;;;;;;5055278;28;20043;-78
2021/07/15 06:47:18;;;;;;;4.28;1.15;;;29.10;90.10;;;;;;5073046;28;20112;-82
2021/07/15 06:49:44;;;;;;;1.08;0.95;;;29.10;90.10;;;;;;5073056;28;20103;-78
2021/07/15 06:52:10;;;;;;;1.50;1.40;;;29.10;90.20;;;;;;5073153;28;20428;-78
2021/07/15 06:54:36;;;;;;;2.70;2.25;;;29.00;90.00;;;;;;5072915;28;20079;-80
2021/07/15 06:57:01;;;;;;;0.88;0.88;;;29.10;89.00;;;;;;5072148;28;20037;-81
2021/07/15 06:59:27;;;;;;;4.15;2.00;;;29.10;89.30;;;;;;5072813;28;20028;-80
2021/07/15 07:01:53;;;;;;;1.75;0.95;;;29.10;89.30;;;;;;5072896;28;20025;-79
2021/07/15 07:04:19;;;;;;;3.10;1.40;;;29.10;89.60;;;;;;5072476;28;20055;-83
2021/07/15 07:06:44;;;;;;;1.08;0.98;;;29.10;89.60;;;;;;5072081;28;20393;-84
2021/07/15 07:09:10;;;;;;;1.58;1.20;;;29.20;89.00;;;;;;5072490;28;20032;-84
2021/07/15 07:11:36;;;;;;;2.17;1.85;;;29.20;88.70;;;;;;5072431;28;20063;-81
2021/07/15 07:14:02;;;;;;;2.45;1.65;;;29.10;89.00;;;;;;5072588;28;20442;-83
2021/07/15 07:16:28;;;;;;;0.63;0.63;;;29.10;89.40;;;;;;5068662;28;20037;-81
2021/07/15 07:18:54;;;;;;;0.57;0.57;;;29.00;90.00;;;;;;5051739;28;20540;-81
2021/07/15 07:21:20;;;;;;;1.20;1.10;;;29.10;89.80;;;;;;5052402;28;20129;-82
2021/07/15 07:23:46;;;;;;;1.63;1.52;;;29.10;90.10;;;;;;5052285;28;20037;-83
2021/07/15 07:26:11;;;;;;;3.53;1.65;;;29.20;89.60;;;;;;5051865;28;20075;-82
2021/07/15 07:28:37;;;;;;;1.15;1.02;;;29.20;89.10;;;;;;5051951;28;20104;-79
2021/07/15 07:31:03;;;;;;;0.65;0.65;;;29.20;89.00;;;;;;5052304;28;20037;-78
2021/07/15 07:33:29;;;;;;;0.73;0.73;;;29.30;90.40;;;;;;5050930;28;20079;-81
2021/07/15 07:35:54;;;;;;;1.58;1.02;;;29.40;88.80;;;;;;5050783;28;20494;-83
2021/07/15 07:38:20;;;;;;;1.27;1.13;;;29.40;88.80;;;;;;5052114;28;20049;-82
2021/07/15 07:40:46;;;;;;;1.45;1.20;;;29.50;88.50;;;;;;5052030;28;20136;-81
2021/07/15 07:43:12;;;;;;;0.98;0.90;;;29.50;88.50;;;;;;5051894;28;20040;-79
2021/07/15 07:45:38;;;;;;;1.58;1.33;;;29.50;87.70;;;;;;5051463;28;20489;-83
2021/07/15 07:48:04;;;;;;;3.22;1.05;;;29.50;88.40;;;;;;5051310;28;20040;-77
2021/07/15 07:50:30;;;;;;;0.57;0.57;;;29.50;87.90;;;;;;5052322;28;20040;-81
2021/07/15 07:52:57;;;;;;;0.50;0.50;;;29.60;88.00;;;;;;5051662;28;20119;-79
2021/07/15 07:55:24;;;;;;;2.05;1.88;;;29.70;88.20;;;;;;5052152;28;20039;-80
2021/07/15 07:57:50;;;;;;;0.65;0.65;;;29.70;87.90;;;;;;5051157;28;20049;-79
2021/07/15 08:00:18;;;;;;;0.93;0.90;;;29.80;88.60;;;;;;5051424;28;20389;-80
2021/07/15 08:02:47;;;;;;;1.08;0.98;;;29.80;88.50;;;;;;5051457;28;20060;-78
2021/07/15 08:05:16;;;;;;;1.58;1.15;;;30.00;88.30;;;;;;5051723;28;20039;-81
2021/07/15 08:07:42;;;;;;;1.00;0.98;;;30.00;87.50;;;;;;5051554;28;20037;-80
2021/07/15 08:10:10;;;;;;;0.88;0.82;;;30.00;86.80;;;;;;5051453;28;20029;-87
2021/07/15 08:12:36;;;;;;;0.85;0.85;;;30.00;86.90;;;;;;5051489;28;20037;-81
2021/07/15 08:15:03;;;;;;;0.85;0.82;;;30.10;87.10;;;;;;5051259;28;20032;-78
2021/07/15 08:17:29;;;;;;;2.00;1.40;;;30.10;87.20;;;;;;5060822;28;20044;-80
2021/07/15 08:19:55;;;;;;;0.45;0.45;;;30.20;86.60;;;;;;5071454;28;20036;-79
2021/07/15 08:22:21;;;;;;;0.77;0.75;;;30.30;86.20;;;;;;5071444;28;20028;-77
2021/07/15 08:24:46;;;;;;;0.60;0.60;;;30.30;86.10;;;;;;5071362;28;20021;-79
2021/07/15 08:27:12;;;;;;;0.60;0.60;;;30.30;85.50;;;;;;5071025;28;20036;-79
2021/07/15 08:29:38;;;;;;;2.30;1.13;;;30.40;85.90;;;;;;5070314;28;20392;-79
2021/07/15 08:32:06;;;;;;;1.42;1.33;;;30.40;86.30;;;;;;5071067;28;20480;-80
2021/07/15 08:34:32;;;;;;;0.73;0.70;;;30.60;85.50;;;;;;5071317;28;20024;-79
2021/07/15 08:36:58;;;;;;;0.50;0.50;;;30.50;85.00;;;;;;5070686;28;20060;-82
2021/07/15 08:39:24;;;;;;;0.50;0.50;;;30.40;84.50;;;;;;5071186;28;20133;-82
2021/07/15 08:41:50;;;;;;;3.38;1.58;;;30.40;85.00;;;;;;5071170;28;20028;-84
2021/07/15 08:44:16;;;;;;;1.35;1.08;;;30.50;84.80;;;;;;5070639;28;20502;-80
2021/07/15 08:46:49;;;;;;;1.27;1.02;;;30.70;84.50;;;;;;5071123;28;20028;-82
2021/07/15 08:49:20;;;;;;;1.05;0.80;;;30.90;84.50;;;;;;5070956;28;20120;-81
2021/07/15 08:51:47;;;;;;;0.60;0.60;;;31.00;83.70;;;;;;5071057;28;20037;-79
2021/07/15 08:54:15;;;;;;;0.50;0.50;;;31.00;83.80;;;;;;5071213;28;20116;-79
2021/07/15 08:56:43;;;;;;;1.40;1.08;;;31.10;83.90;;;;;;5071002;28;20135;-80
2021/07/15 08:59:15;;;;;;;1.20;1.10;;;31.20;82.90;;;;;;5070550;28;20496;-80
2021/07/15 09:01:55;;;;;;;2.20;1.60;;;31.30;82.40;;;;;;5071258;28;20028;-80
2021/07/15 09:04:22;;;;;;;0.93;0.60;;;31.30;81.80;;;;;;5070874;28;20037;-82
2021/07/15 09:06:49;;;;;;;2.17;1.75;;;31.20;81.80;;;;;;5071155;28;20507;-80
2021/07/15 09:09:15;;;;;;;1.13;0.75;;;31.20;81.90;;;;;;5070703;28;20111;-81
2021/07/15 09:11:42;;;;;;;0.30;0.30;;;31.40;81.20;;;;;;5070769;28;20162;-81
2021/07/15 09:14:17;;;;;;;0.93;0.82;;;31.50;81.80;;;;;;5070613;28;20024;-81
2021/07/15 09:16:50;;;;;;;1.83;1.20;;;31.80;81.00;;;;;;5068984;28;20048;-81
2021/07/15 09:19:17;;;;;;;1.23;1.13;;;31.80;80.10;;;;;;5050976;28;20033;-80
2021/07/15 09:21:44;;;;;;;0.80;0.73;;;31.90;79.90;;;;;;5050830;28;20116;-81
2021/07/15 09:24:29;;;;;;;0.73;0.73;;;32.10;79.10;;;;;;5050530;28;20044;-81
2021/07/15 09:26:55;;;;;;;3.97;2.45;;;32.40;78.10;;;;;;5050970;28;20380;-79
2021/07/15 09:29:21;;;;;;;0.98;0.88;;;32.30;77.70;;;;;;5032371;28;20512;-80
2021/07/15 09:31:54;;;;;;;1.80;1.45;;;32.40;78.20;;;;;;5050727;28;20033;-83
2021/07/15 09:34:21;;;;;;;0.90;0.82;;;32.70;77.70;;;;;;5050525;28;20041;-77
2021/07/15 09:36:49;;;;;;;0.30;0.30;;;32.80;77.20;;;;;;5050907;28;20037;-79
2021/07/15 09:39:23;;;;;;;0.40;0.40;;;33.00;76.90;;;;;;5050423;28;20128;-81
2021/07/15 09:42:08;;;;;;;1.35;0.85;;;32.80;76.00;;;;;;5053989;28;20560;-79
2021/07/15 09:44:35;;;;;;;10.98;2.40;;;32.90;75.40;;;;;;5053985;28;20033;-78
2021/07/15 09:47:05;;;;;;;2.40;1.25;;;33.00;75.90;;;;;;5054160;28;20493;-83
2021/07/15 09:49:36;;;;;;;1.65;0.90;;;33.10;75.30;;;;;;5036008;28;20041;-80
2021/07/15 09:52:03;;;;;;;1.05;0.95;;;33.50;74.00;;;;;;5054283;28;20033;-78
2021/07/15 09:54:29;;;;;;;0.73;0.70;;;33.50;74.40;;;;;;5053873;28;20029;-77
2021/07/15 09:56:55;;;;;;;1.40;0.85;;;33.50;73.80;;;;;;5053686;28;20044;-79
2021/07/15 09:59:21;;;;;;;1.08;0.93;;;33.60;73.00;;;;;;5046670;28;20029;-76
2021/07/15 10:01:49;;;;;;;0.93;0.88;;;33.70;71.10;;;;;;5041444;28;20131;-76
2021/07/15 10:04:26;;;;;;;0.80;0.60;;;33.70;72.60;;;;;;5043088;28;20052;-79
2021/07/15 10:06:54;;;;;;;1.67;1.05;;;33.90;73.10;;;;;;5042251;28;20141;-76
2021/07/15 10:09:23;;;;;;;0.52;0.50;;;34.10;72.10;;;;;;5042454;28;20048;-84
2021/07/15 10:11:50;;;;;;;0.43;0.43;;;34.20;72.60;;;;;;5043373;28;20036;-79
2021/07/15 10:14:17;;;;;;;1.60;1.20;;;34.40;71.80;;;;;;5041696;28;20025;-81
2021/07/15 10:16:45;;;;;;;0.90;0.77;;;34.30;71.90;;;;;;5043088;28;20025;-89
2021/07/15 10:19:20;;;;;;;0.65;0.65;;;34.00;71.30;;;;;;5043905;28;20033;-78
2021/07/15 10:21:54;;;;;;;0.80;0.75;;;34.00;72.90;;;;;;5043193;28;20036;-83
2021/07/15 10:24:22;;;;;;;1.50;1.08;;;34.30;72.00;;;;;;5041688;28;20029;-84
2021/07/15 10:26:51;;;;;;;0.63;0.63;;;34.50;72.00;;;;;;5039840;28;20362;-81
2021/07/15 10:29:18;;;;;;;4.13;1.15;;;34.70;71.20;;;;;;5038964;28;20033;-83
2021/07/15 10:31:46;;;;;;;1.40;0.77;;;34.90;71.20;;;;;;5042913;28;20021;-79
2021/07/15 10:34:13;;;;;;;2.63;1.77;;;35.00;71.10;;;;;;5022583;28;20044;-78
2021/07/15 10:36:40;;;;;;;1.13;1.02;;;35.00;70.40;;;;;;5041166;28;20036;-77
2021/07/15 10:39:10;;;;;;;1.08;0.93;;;35.20;69.80;;;;;;5044090;28;20389;-82
2021/07/15 10:41:37;;;;;;;3.13;0.63;;;35.30;69.30;;;;;;5053349;28;20021;-82
2021/07/15 10:44:04;;;;;;;6.63;1.13;;;35.00;69.30;;;;;;5053493;28;20415;-80
2021/07/15 10:46:31;;;;;;;1.35;1.17;;;35.10;70.50;;;;;;5052571;28;20729;-87
2021/07/15 10:48:58;;;;;;;0.65;0.57;;;35.20;69.30;;;;;;5053224;28;20055;-83
2021/07/15 10:51:24;;;;;;;1.55;1.00;;;35.10;68.20;;;;;;5034723;28;20030;-85
2021/07/15 10:53:51;;;;;;;1.13;0.82;;;35.10;68.20;;;;;;5034328;28;20083;-81
2021/07/15 10:56:19;;;;;;;0.88;0.75;;;35.10;69.10;;;;;;5053024;28;20041;-84
2021/07/15 10:58:52;;;;;;;1.98;1.27;;;35.40;68.20;;;;;;5052735;28;20044;-82
2021/07/15 11:01:41;;;;;;;0.82;0.82;;;35.50;67.30;;;;;;5053623;28;20033;-94
2021/07/15 11:04:14;;;;;;;0.30;0.30;;;35.70;67.20;;;;;;5042764;28;20030;-80
2021/07/15 11:06:45;;;;;;;0.90;0.60;;;35.60;67.70;;;;;;5035017;28;20445;-84
2021/07/15 11:09:29;;;;;;;4.07;1.27;;;35.70;68.50;;;;;;5042853;28;20393;-81
2021/07/15 11:11:57;;;;;;;2.35;1.83;;;35.80;66.20;;;;;;5043539;28;20025;-81
2021/07/15 11:14:39;;;;;;;1.80;1.15;;;35.80;66.40;;;;;;5035858;28;20041;-81
2021/07/15 11:17:26;;;;;;;1.65;1.00;;;35.90;65.70;;;;;;5041670;28;20061;-78
2021/07/15 11:20:08;;;;;;;6.88;2.42;;;35.80;66.60;;;;;;5042052;28;20057;-78
2021/07/15 11:22:57;;;;;;;1.67;1.15;;;35.90;66.10;;;;;;5041978;28;20029;-81
2021/07/15 11:25:29;;;;;;;0.52;0.43;;;36.00;65.40;;;;;;5040267;28;20041;-80
2021/07/15 11:27:56;;;;;;;1.05;0.75;;;36.00;65.50;;;;;;5039946;28;20490;-80
2021/07/15 11:30:39;;;;;;;1.23;1.13;;;36.10;64.80;;;;;;5040479;28;20521;-80
2021/07/15 11:33:18;;;;;;;1.55;0.93;;;35.90;64.30;;;;;;5041639;28;20033;-81
2021/07/15 11:36:09;;;;;;;0.70;0.70;;;35.80;64.80;;;;;;5041258;28;20088;-83
2021/07/15 11:38:57;;;;;;;1.80;0.80;;;35.90;65.60;;;;;;5038672;28;20043;-80
2021/07/15 11:41:23;;;;;;;0.75;0.70;;;36.00;64.10;;;;;;5041369;28;20063;-80
2021/07/15 11:43:56;;;;;;;1.80;0.90;;;35.80;64.50;;;;;;5039481;28;20445;-79
2021/07/15 11:46:23;;;;;;;0.60;0.60;;;36.10;64.60;;;;;;5024189;28;20088;-82
2021/07/15 11:48:57;;;;;;;1.55;1.05;;;36.20;64.60;;;;;;5039105;28;20148;-79
2021/07/15 11:51:36;;;;;;;16.17;1.95;;;36.10;64.30;;;;;;5041185;28;20673;-82
2021/07/15 11:54:23;;;;;;;1.17;1.08;;;36.30;64.40;;;;;;5042105;28;20047;-81
2021/07/15 11:57:13;;;;;;;0.68;0.63;;;36.30;63.90;;;;;;5024977;28;20532;-80
2021/07/15 11:59:44;;;;;;;1.02;0.90;;;36.50;64.00;;;;;;5041250;28;20025;-82
2021/07/15 12:02:36;;;;;;;0.65;0.55;;;36.20;62.80;;;;;;5040414;28;20033;-80
2021/07/15 12:05:21;;;;;;;1.98;0.93;;;36.10;63.20;;;;;;5041653;28;20202;-83
2021/07/15 12:07:49;;;;;;;2.10;1.17;;;35.90;63.50;;;;;;5040440;28;20501;-79
2021/07/15 12:10:27;;;;;;;1.13;0.88;;;36.50;63.50;;;;;;5041912;28;20120;-79
2021/07/15 12:12:56;;;;;;;2.05;1.15;;;36.90;62.30;;;;;;5042192;28;20598;-80
2021/07/15 12:15:27;;;;;;;1.55;1.02;;;36.90;63.00;;;;;;5040503;28;20030;-81
2021/07/15 12:17:58;;;;;;;0.73;0.73;;;36.80;62.10;;;;;;5044526;28;20392;-80
2021/07/15 12:20:35;;;;;;;0.98;0.88;;;36.80;61.70;;;;;;5039172;28;20033;-78
2021/07/15 12:23:01;;;;;;;2.13;1.77;;;36.90;62.30;;;;;;5041576;28;20116;-78
2021/07/15 12:25:29;;;;;;;0.80;0.70;;;37.00;61.20;;;;;;5040092;28;20089;-78
2021/07/15 12:28:04;;;;;;;6.45;1.17;;;36.90;61.20;;;;;;5038254;28;20041;-79
2021/07/15 12:30:45;;;;;;;1.00;0.88;;;37.10;61.30;;;;;;5033810;28;20029;-77
2021/07/15 12:33:14;;;;;;;2.33;1.60;;;37.10;60.70;;;;;;5031531;28;20083;-81
2021/07/15 12:35:41;;;;;;;0.55;0.50;;;37.60;61.10;;;;;;5013386;28;20136;-79
2021/07/15 12:38:22;;;;;;;1.30;0.82;;;37.60;60.60;;;;;;5033265;28;20048;-83
2021/07/15 12:40:49;;;;;;;1.17;1.00;;;37.30;59.70;;;;;;5034894;28;20397;-79
2021/07/15 12:43:18;;;;;;;0.95;0.88;;;37.30;61.10;;;;;;5030945;28;20407;-79
2021/07/15 12:45:47;;;;;;;0.73;0.70;;;37.50;59.80;;;;;;5045348;28;20044;-78
2021/07/15 12:48:17;;;;;;;1.95;1.33;;;37.40;60.00;;;;;;5051046;28;20294;-78
2021/07/15 12:50:45;;;;;;;1.35;0.90;;;37.70;59.90;;;;;;5051148;28;20037;-79
2021/07/15 12:53:18;;;;;;;0.98;0.80;;;37.90;59.70;;;;;;5050983;28;20044;-79
2021/07/15 12:55:45;;;;;;;0.80;0.63;;;37.80;58.50;;;;;;5032883;28;20362;-77
2021/07/15 12:58:12;;;;;;;0.88;0.75;;;37.70;58.80;;;;;;5050961;28;20041;-78